sensor_id;sensor_type;location;lat;lon;timestamp;temperature;humidity
9776;DHT22;4927;52.472;13.108;2022-07-29T00:01:26;13.00;99.90
9776;DHT22;4927;52.472;13.108;2022-07-29T00:06:33;13.00;99.90
9776;DHT22;4927;52.472;13.108;2022-07-29T00:11:39;13.10;99.90
9776;DHT22;4927;52.472;13.108;2022-07-29T00:16:45;13.10;99.90
9776;DHT22;4927;52.472;13.108;2022-07-29T00:21:52;13.20;99.90
9776;DHT22;4927;52.472;13.108;2022-07-29T00:26:58;13.20;99.90
9776;DHT22;4927;52.472;13.108;2022-07-29T00:32:05;13.30;99.90
9776;DHT22;4927;52.472;13.108;2022-07-29T00:37:09;13.30;99.90
9776;DHT22;4927;52.472;13.108;2022-07-29T00:42:16;13.20;99.90
9776;DHT22;4927;52.472;13.108;2022-07-29T00:47:22;13.20;99.90
9776;DHT22;4927;52.472;13.108;2022-07-29T00:52:28;13.10;99.90
9776;DHT22;4927;52.472;13.108;2022-07-29T00:57:33;13.00;99.90
9776;DHT22;4927;52.472;13.108;2022-07-29T01:02:39;12.80;99.90
9776;DHT22;4927;52.472;13.108;2022-07-29T01:07:45;12.80;99.90
9776;DHT22;4927;52.472;13.108;2022-07-29T01:12:52;12.80;99.90
9776;DHT22;4927;52.472;13.108;2022-07-29T01:18:18;12.80;99.90
9776;DHT22;4927;52.472;13.108;2022-07-29T01:23:48;12.70;99.90
9776;DHT22;4927;52.472;13.108;2022-07-29T01:29:30;12.80;99.90
9776;DHT22;4927;52.472;13.108;2022-07-29T01:34:44;12.90;99.90
9776;DHT22;4927;52.472;13.108;2022-07-29T01:39:46;12.90;99.90
9776;DHT22;4927;52.472;13.108;2022-07-29T01:44:55;13.10;99.90
9776;DHT22;4927;52.472;13.108;2022-07-29T01:50:00;13.10;99.90
9776;DHT22;4927;52.472;13.108;2022-07-29T01:55:07;13.00;99.90
9776;DHT22;4927;52.472;13.108;2022-07-29T02:00:15;13.00;99.90
9776;DHT22;4927;52.472;13.108;2022-07-29T02:05:26;12.90;99.90
9776;DHT22;4927;52.472;13.108;2022-07-29T02:10:33;12.80;99.90
9776;DHT22;4927;52.472;13.108;2022-07-29T02:15:40;12.70;99.90
9776;DHT22;4927;52.472;13.108;2022-07-29T02:20:48;12.70;99.90
9776;DHT22;4927;52.472;13.108;2022-07-29T02:25:54;12.60;99.90
9776;DHT22;4927;52.472;13.108;2022-07-29T02:31:00;12.60;99.90
9776;DHT22;4927;52.472;13.108;2022-07-29T02:36:06;12.90;99.90
9776;DHT22;4927;52.472;13.108;2022-07-29T02:41:15;13.20;99.90
9776;DHT22;4927;52.472;13.108;2022-07-29T02:46:21;13.40;99.90
9776;DHT22;4927;52.472;13.108;2022-07-29T02:51:32;13.60;99.90
9776;DHT22;4927;52.472;13.108;2022-07-29T02:56:36;13.80;99.90
9776;DHT22;4927;52.472;13.108;2022-07-29T03:01:42;13.90;99.90
9776;DHT22;4927;52.472;13.108;2022-07-29T03:06:48;13.80;99.90
9776;DHT22;4927;52.472;13.108;2022-07-29T03:11:55;13.90;99.90
9776;DHT22;4927;52.472;13.108;2022-07-29T03:17:02;13.80;99.90
9776;DHT22;4927;52.472;13.108;2022-07-29T03:22:10;13.80;99.90
9776;DHT22;4927;52.472;13.108;2022-07-29T03:27:18;13.80;99.90
9776;DHT22;4927;52.472;13.108;2022-07-29T03:32:24;13.80;99.90
9776;DHT22;4927;52.472;13.108;2022-07-29T03:37:31;13.80;99.90
9776;DHT22;4927;52.472;13.108;2022-07-29T03:42:38;13.90;99.90
9776;DHT22;4927;52.472;13.108;2022-07-29T03:47:45;14.00;99.90
9776;DHT22;4927;52.472;13.108;2022-07-29T03:52:50;14.00;99.90
9776;DHT22;4927;52.472;13.108;2022-07-29T03:58:00;14.10;99.90
9776;DHT22;4927;52.472;13.108;2022-07-29T04:03:06;14.20;99.90
9776;DHT22;4927;52.472;13.108;2022-07-29T04:08:12;14.10;99.90
9776;DHT22;4927;52.472;13.108;2022-07-29T04:13:24;14.10;99.90
9776;DHT22;4927;52.472;13.108;2022-07-29T04:18:31;14.10;99.90
9776;DHT22;4927;52.472;13.108;2022-07-29T04:23:37;14.10;99.90
9776;DHT22;4927;52.472;13.108;2022-07-29T04:28:47;14.10;99.90
9776;DHT22;4927;52.472;13.108;2022-07-29T04:33:53;14.30;99.90
9776;DHT22;4927;52.472;13.108;2022-07-29T04:39:00;14.40;99.90
9776;DHT22;4927;52.472;13.108;2022-07-29T04:44:06;14.50;99.90
9776;DHT22;4927;52.472;13.108;2022-07-29T04:49:12;14.70;99.90
9776;DHT22;4927;52.472;13.108;2022-07-29T04:54:19;14.90;99.90
9776;DHT22;4927;52.472;13.108;2022-07-29T04:59:23;15.10;99.90
9776;DHT22;4927;52.472;13.108;2022-07-29T05:04:29;15.40;99.90
9776;DHT22;4927;52.472;13.108;2022-07-29T05:09:35;15.50;99.90
9776;DHT22;4927;52.472;13.108;2022-07-29T05:14:46;15.60;99.90
9776;DHT22;4927;52.472;13.108;2022-07-29T05:19:52;15.70;99.90
9776;DHT22;4927;52.472;13.108;2022-07-29T05:25:03;15.80;99.90
9776;DHT22;4927;52.472;13.108;2022-07-29T05:30:10;15.90;99.90
9776;DHT22;4927;52.472;13.108;2022-07-29T05:35:17;15.90;99.90
9776;DHT22;4927;52.472;13.108;2022-07-29T05:40:23;16.10;99.90
9776;DHT22;4927;52.472;13.108;2022-07-29T05:45:30;16.20;99.90
9776;DHT22;4927;52.472;13.108;2022-07-29T05:50:36;16.30;99.90
9776;DHT22;4927;52.472;13.108;2022-07-29T05:55:42;16.50;99.90
9776;DHT22;4927;52.472;13.108;2022-07-29T06:00:48;16.80;99.90
9776;DHT22;4927;52.472;13.108;2022-07-29T06:05:59;17.10;99.90
9776;DHT22;4927;52.472;13.108;2022-07-29T06:11:10;17.10;99.90
9776;DHT22;4927;52.472;13.108;2022-07-29T06:16:16;17.00;99.90
9776;DHT22;4927;52.472;13.108;2022-07-29T06:21:22;17.20;99.90
9776;DHT22;4927;52.472;13.108;2022-07-29T06:26:29;17.30;99.90
9776;DHT22;4927;52.472;13.108;2022-07-29T06:31:35;17.50;99.90
9776;DHT22;4927;52.472;13.108;2022-07-29T06:36:41;17.70;99.90
9776;DHT22;4927;52.472;13.108;2022-07-29T06:41:48;17.90;99.90
9776;DHT22;4927;52.472;13.108;2022-07-29T06:46:54;18.00;99.90
9776;DHT22;4927;52.472;13.108;2022-07-29T06:52:00;18.10;99.90
9776;DHT22;4927;52.472;13.108;2022-07-29T06:57:11;18.80;99.90
9776;DHT22;4927;52.472;13.108;2022-07-29T07:02:17;18.80;99.90
9776;DHT22;4927;52.472;13.108;2022-07-29T07:07:24;19.10;99.90
9776;DHT22;4927;52.472;13.108;2022-07-29T07:12:30;19.20;99.90
9776;DHT22;4927;52.472;13.108;2022-07-29T07:17:36;19.30;99.90
9776;DHT22;4927;52.472;13.108;2022-07-29T07:22:43;19.70;99.90
9776;DHT22;4927;52.472;13.108;2022-07-29T07:27:49;19.70;99.90
9776;DHT22;4927;52.472;13.108;2022-07-29T07:32:56;19.90;99.90
9776;DHT22;4927;52.472;13.108;2022-07-29T07:38:02;20.00;99.90
9776;DHT22;4927;52.472;13.108;2022-07-29T07:43:08;20.00;99.90
9776;DHT22;4927;52.472;13.108;2022-07-29T07:48:15;20.10;99.90
9776;DHT22;4927;52.472;13.108;2022-07-29T07:53:21;20.40;99.90
9776;DHT22;4927;52.472;13.108;2022-07-29T07:58:27;20.70;99.90
9776;DHT22;4927;52.472;13.108;2022-07-29T08:03:32;21.10;99.20
9776;DHT22;4927;52.472;13.108;2022-07-29T08:08:38;21.60;98.50
9776;DHT22;4927;52.472;13.108;2022-07-29T08:13:45;22.00;97.70
9776;DHT22;4927;52.472;13.108;2022-07-29T08:18:51;22.00;97.70
9776;DHT22;4927;52.472;13.108;2022-07-29T08:23:57;22.20;96.60
9776;DHT22;4927;52.472;13.108;2022-07-29T08:29:10;22.40;96.00
9776;DHT22;4927;52.472;13.108;2022-07-29T08:34:16;22.60;94.90
9776;DHT22;4927;52.472;13.108;2022-07-29T08:39:22;22.80;93.80
9776;DHT22;4927;52.472;13.108;2022-07-29T08:44:28;22.90;93.80
9776;DHT22;4927;52.472;13.108;2022-07-29T08:49:35;23.20;92.30
9776;DHT22;4927;52.472;13.108;2022-07-29T08:54:43;23.40;91.60
9776;DHT22;4927;52.472;13.108;2022-07-29T08:59:48;23.60;90.30
9776;DHT22;4927;52.472;13.108;2022-07-29T09:04:54;23.80;90.60
9776;DHT22;4927;52.472;13.108;2022-07-29T09:10:01;23.80;89.70
9776;DHT22;4927;52.472;13.108;2022-07-29T09:15:08;23.70;88.90
9776;DHT22;4927;52.472;13.108;2022-07-29T09:20:16;23.60;88.50
9776;DHT22;4927;52.472;13.108;2022-07-29T09:25:42;23.80;86.30
9776;DHT22;4927;52.472;13.108;2022-07-29T09:30:53;23.80;84.70
9776;DHT22;4927;52.472;13.108;2022-07-29T09:36:05;23.80;83.50
9776;DHT22;4927;52.472;13.108;2022-07-29T09:41:15;23.90;83.90
9776;DHT22;4927;52.472;13.108;2022-07-29T09:46:22;24.20;81.20
9776;DHT22;4927;52.472;13.108;2022-07-29T09:51:28;24.20;80.60
9776;DHT22;4927;52.472;13.108;2022-07-29T09:56:40;24.20;80.10
9776;DHT22;4927;52.472;13.108;2022-07-29T10:01:45;24.30;82.60
9776;DHT22;4927;52.472;13.108;2022-07-29T10:06:56;24.70;77.10
9776;DHT22;4927;52.472;13.108;2022-07-29T10:12:05;24.80;77.40
9776;DHT22;4927;52.472;13.108;2022-07-29T10:17:11;24.90;75.30
9776;DHT22;4927;52.472;13.108;2022-07-29T10:22:17;24.90;75.10
9776;DHT22;4927;52.472;13.108;2022-07-29T10:27:23;25.10;74.90
9776;DHT22;4927;52.472;13.108;2022-07-29T10:32:39;25.30;74.90
9776;DHT22;4927;52.472;13.108;2022-07-29T10:38:10;25.30;73.90
9776;DHT22;4927;52.472;13.108;2022-07-29T10:42:58;25.40;72.20
9776;DHT22;4927;52.472;13.108;2022-07-29T10:48:05;25.70;70.80
9776;DHT22;4927;52.472;13.108;2022-07-29T10:53:11;25.90;68.70
9776;DHT22;4927;52.472;13.108;2022-07-29T10:58:20;26.20;67.70
9776;DHT22;4927;52.472;13.108;2022-07-29T11:08:57;27.00;66.10
9776;DHT22;4927;52.472;13.108;2022-07-29T11:13:54;27.00;64.50
9776;DHT22;4927;52.472;13.108;2022-07-29T11:24:14;27.10;64.70
9776;DHT22;4927;52.472;13.108;2022-07-29T11:29:21;27.10;64.00
9776;DHT22;4927;52.472;13.108;2022-07-29T11:34:29;27.10;63.70
9776;DHT22;4927;52.472;13.108;2022-07-29T11:39:40;27.70;64.20
9776;DHT22;4927;52.472;13.108;2022-07-29T11:44:54;27.70;64.10
9776;DHT22;4927;52.472;13.108;2022-07-29T11:50:00;28.10;64.00
9776;DHT22;4927;52.472;13.108;2022-07-29T11:55:07;28.50;65.30
9776;DHT22;4927;52.472;13.108;2022-07-29T12:00:33;28.60;63.90
9776;DHT22;4927;52.472;13.108;2022-07-29T12:05:42;28.60;64.20
9776;DHT22;4927;52.472;13.108;2022-07-29T12:10:51;28.50;64.10
9776;DHT22;4927;52.472;13.108;2022-07-29T12:15:57;28.60;63.90
9776;DHT22;4927;52.472;13.108;2022-07-29T12:21:04;28.40;64.60
9776;DHT22;4927;52.472;13.108;2022-07-29T12:26:10;28.70;63.40
9776;DHT22;4927;52.472;13.108;2022-07-29T12:31:16;29.00;63.20
9776;DHT22;4927;52.472;13.108;2022-07-29T12:36:26;29.30;64.80
9776;DHT22;4927;52.472;13.108;2022-07-29T12:41:37;29.30;63.70
9776;DHT22;4927;52.472;13.108;2022-07-29T12:46:43;29.40;64.90
9776;DHT22;4927;52.472;13.108;2022-07-29T12:51:49;29.20;64.00
9776;DHT22;4927;52.472;13.108;2022-07-29T12:56:58;29.10;63.80
9776;DHT22;4927;52.472;13.108;2022-07-29T13:02:04;28.90;64.50
9776;DHT22;4927;52.472;13.108;2022-07-29T13:07:10;29.00;64.50
9776;DHT22;4927;52.472;13.108;2022-07-29T13:12:17;29.50;64.40
9776;DHT22;4927;52.472;13.108;2022-07-29T13:17:24;29.60;64.00
9776;DHT22;4927;52.472;13.108;2022-07-29T13:22:28;29.50;63.60
9776;DHT22;4927;52.472;13.108;2022-07-29T13:27:35;29.60;62.80
9776;DHT22;4927;52.472;13.108;2022-07-29T13:32:41;29.60;63.00
9776;DHT22;4927;52.472;13.108;2022-07-29T13:37:47;29.80;63.40
9776;DHT22;4927;52.472;13.108;2022-07-29T13:42:53;29.70;63.60
9776;DHT22;4927;52.472;13.108;2022-07-29T13:47:59;29.50;64.00
9776;DHT22;4927;52.472;13.108;2022-07-29T13:53:06;29.40;63.70
9776;DHT22;4927;52.472;13.108;2022-07-29T13:58:12;29.40;63.70
9776;DHT22;4927;52.472;13.108;2022-07-29T14:03:18;29.20;63.60
9776;DHT22;4927;52.472;13.108;2022-07-29T14:10:43;29.10;63.80
9776;DHT22;4927;52.472;13.108;2022-07-29T14:15:49;29.00;63.60
9776;DHT22;4927;52.472;13.108;2022-07-29T14:20:56;29.20;63.90
9776;DHT22;4927;52.472;13.108;2022-07-29T14:26:02;29.00;63.10
9776;DHT22;4927;52.472;13.108;2022-07-29T14:31:08;29.10;64.40
9776;DHT22;4927;52.472;13.108;2022-07-29T14:36:15;29.10;62.40
9776;DHT22;4927;52.472;13.108;2022-07-29T14:41:21;28.90;62.50
9776;DHT22;4927;52.472;13.108;2022-07-29T14:46:27;28.60;62.30
9776;DHT22;4927;52.472;13.108;2022-07-29T14:51:34;28.60;62.80
9776;DHT22;4927;52.472;13.108;2022-07-29T14:56:40;28.80;62.60
9776;DHT22;4927;52.472;13.108;2022-07-29T15:01:50;28.70;63.30
9776;DHT22;4927;52.472;13.108;2022-07-29T15:06:56;28.70;62.70
9776;DHT22;4927;52.472;13.108;2022-07-29T15:12:03;28.60;62.60
9776;DHT22;4927;52.472;13.108;2022-07-29T15:17:09;28.60;62.80
9776;DHT22;4927;52.472;13.108;2022-07-29T15:22:16;28.70;61.80
9776;DHT22;4927;52.472;13.108;2022-07-29T15:27:23;28.80;61.50
9776;DHT22;4927;52.472;13.108;2022-07-29T15:32:29;28.80;61.00
9776;DHT22;4927;52.472;13.108;2022-07-29T15:37:38;28.70;60.80
9776;DHT22;4927;52.472;13.108;2022-07-29T15:42:44;28.80;61.20
9776;DHT22;4927;52.472;13.108;2022-07-29T15:47:50;28.80;61.50
9776;DHT22;4927;52.472;13.108;2022-07-29T15:52:56;28.90;60.70
9776;DHT22;4927;52.472;13.108;2022-07-29T15:58:03;28.70;61.40
9776;DHT22;4927;52.472;13.108;2022-07-29T16:03:10;28.60;61.40
9776;DHT22;4927;52.472;13.108;2022-07-29T16:08:16;28.60;61.10
9776;DHT22;4927;52.472;13.108;2022-07-29T16:13:22;28.50;60.60
9776;DHT22;4927;52.472;13.108;2022-07-29T16:18:29;28.30;60.60
9776;DHT22;4927;52.472;13.108;2022-07-29T16:23:33;28.30;60.60
9776;DHT22;4927;52.472;13.108;2022-07-29T16:28:40;28.00;61.00
9776;DHT22;4927;52.472;13.108;2022-07-29T16:33:46;27.90;60.90
9776;DHT22;4927;52.472;13.108;2022-07-29T16:38:52;27.80;61.80
9776;DHT22;4927;52.472;13.108;2022-07-29T16:43:59;27.70;61.70
9776;DHT22;4927;52.472;13.108;2022-07-29T16:49:05;27.70;62.70
9776;DHT22;4927;52.472;13.108;2022-07-29T16:54:10;27.70;62.60
9776;DHT22;4927;52.472;13.108;2022-07-29T16:59:17;27.70;62.40
9776;DHT22;4927;52.472;13.108;2022-07-29T17:04:23;27.60;63.00
9776;DHT22;4927;52.472;13.108;2022-07-29T17:09:29;27.50;63.30
9776;DHT22;4927;52.472;13.108;2022-07-29T17:14:34;27.60;63.10
9776;DHT22;4927;52.472;13.108;2022-07-29T17:19:40;27.70;62.80
9776;DHT22;4927;52.472;13.108;2022-07-29T17:24:46;27.50;62.90
9776;DHT22;4927;52.472;13.108;2022-07-29T17:29:52;27.30;63.00
9776;DHT22;4927;52.472;13.108;2022-07-29T17:34:59;27.20;63.10
9776;DHT22;4927;52.472;13.108;2022-07-29T17:40:04;27.10;63.20
9776;DHT22;4927;52.472;13.108;2022-07-29T17:45:10;26.90;62.90
9776;DHT22;4927;52.472;13.108;2022-07-29T17:50:17;26.80;63.40
9776;DHT22;4927;52.472;13.108;2022-07-29T17:55:21;26.70;63.50
9776;DHT22;4927;52.472;13.108;2022-07-29T18:00:27;26.50;64.00
9776;DHT22;4927;52.472;13.108;2022-07-29T18:05:34;26.50;64.10
9776;DHT22;4927;52.472;13.108;2022-07-29T18:10:40;26.30;64.20
9776;DHT22;4927;52.472;13.108;2022-07-29T18:15:46;26.10;64.40
9776;DHT22;4927;52.472;13.108;2022-07-29T18:20:53;26.00;64.70
9776;DHT22;4927;52.472;13.108;2022-07-29T18:25:59;25.90;64.70
9776;DHT22;4927;52.472;13.108;2022-07-29T18:31:05;25.90;64.90
9776;DHT22;4927;52.472;13.108;2022-07-29T18:36:12;25.50;65.60
9776;DHT22;4927;52.472;13.108;2022-07-29T18:41:18;25.50;65.50
9776;DHT22;4927;52.472;13.108;2022-07-29T18:46:25;25.30;65.90
9776;DHT22;4927;52.472;13.108;2022-07-29T18:51:31;25.20;65.90
9776;DHT22;4927;52.472;13.108;2022-07-29T18:56:37;25.10;66.30
9776;DHT22;4927;52.472;13.108;2022-07-29T19:01:44;24.90;66.50
9776;DHT22;4927;52.472;13.108;2022-07-29T19:06:48;24.90;66.60
9776;DHT22;4927;52.472;13.108;2022-07-29T19:11:54;24.70;66.40
9776;DHT22;4927;52.472;13.108;2022-07-29T19:17:00;24.50;66.30
9776;DHT22;4927;52.472;13.108;2022-07-29T19:22:07;24.50;66.40
9776;DHT22;4927;52.472;13.108;2022-07-29T19:27:13;24.40;66.70
9776;DHT22;4927;52.472;13.108;2022-07-29T19:32:19;24.20;67.60
9776;DHT22;4927;52.472;13.108;2022-07-29T19:37:24;24.00;67.30
9776;DHT22;4927;52.472;13.108;2022-07-29T19:42:31;23.80;67.40
9776;DHT22;4927;52.472;13.108;2022-07-29T19:47:37;23.80;67.40
9776;DHT22;4927;52.472;13.108;2022-07-29T19:52:43;23.70;67.70
9776;DHT22;4927;52.472;13.108;2022-07-29T19:57:50;23.60;67.30
9776;DHT22;4927;52.472;13.108;2022-07-29T20:02:57;23.50;67.40
9776;DHT22;4927;52.472;13.108;2022-07-29T20:08:03;23.50;67.30
9776;DHT22;4927;52.472;13.108;2022-07-29T20:13:10;23.50;67.40
9776;DHT22;4927;52.472;13.108;2022-07-29T20:18:16;23.50;67.60
9776;DHT22;4927;52.472;13.108;2022-07-29T20:23:22;23.40;67.40
9776;DHT22;4927;52.472;13.108;2022-07-29T20:28:29;23.40;67.60
9776;DHT22;4927;52.472;13.108;2022-07-29T20:33:35;23.40;67.60
9776;DHT22;4927;52.472;13.108;2022-07-29T20:38:41;23.30;67.90
9776;DHT22;4927;52.472;13.108;2022-07-29T20:43:47;23.20;68.30
9776;DHT22;4927;52.472;13.108;2022-07-29T20:48:55;23.20;68.90
9776;DHT22;4927;52.472;13.108;2022-07-29T20:54:01;23.00;69.20
9776;DHT22;4927;52.472;13.108;2022-07-29T20:59:07;22.80;69.60
9776;DHT22;4927;52.472;13.108;2022-07-29T21:04:14;22.70;69.80
9776;DHT22;4927;52.472;13.108;2022-07-29T21:09:20;22.60;70.30
9776;DHT22;4927;52.472;13.108;2022-07-29T21:14:26;22.40;70.50
9776;DHT22;4927;52.472;13.108;2022-07-29T21:19:39;22.40;70.00
9776;DHT22;4927;52.472;13.108;2022-07-29T21:24:45;22.30;70.70
9776;DHT22;4927;52.472;13.108;2022-07-29T21:29:51;22.20;70.50
9776;DHT22;4927;52.472;13.108;2022-07-29T21:34:58;22.20;70.60
9776;DHT22;4927;52.472;13.108;2022-07-29T21:40:05;22.10;70.90
9776;DHT22;4927;52.472;13.108;2022-07-29T21:45:12;22.10;70.60
9776;DHT22;4927;52.472;13.108;2022-07-29T21:50:18;22.00;70.30
9776;DHT22;4927;52.472;13.108;2022-07-29T21:55:24;22.00;70.40
9776;DHT22;4927;52.472;13.108;2022-07-29T22:00:31;22.00;70.50
9776;DHT22;4927;52.472;13.108;2022-07-29T22:05:38;22.00;70.40
9776;DHT22;4927;52.472;13.108;2022-07-29T22:10:44;22.00;70.40
9776;DHT22;4927;52.472;13.108;2022-07-29T22:15:50;21.90;70.40
9776;DHT22;4927;52.472;13.108;2022-07-29T22:20:57;21.90;70.60
9776;DHT22;4927;52.472;13.108;2022-07-29T22:26:04;21.80;70.80
9776;DHT22;4927;52.472;13.108;2022-07-29T22:31:10;21.80;70.70
9776;DHT22;4927;52.472;13.108;2022-07-29T22:36:16;21.70;70.60
9776;DHT22;4927;52.472;13.108;2022-07-29T22:41:22;21.70;71.10
9776;DHT22;4927;52.472;13.108;2022-07-29T22:46:29;21.60;70.70
9776;DHT22;4927;52.472;13.108;2022-07-29T22:51:33;21.60;70.80
9776;DHT22;4927;52.472;13.108;2022-07-29T22:56:39;21.60;70.70
9776;DHT22;4927;52.472;13.108;2022-07-29T23:01:46;21.50;70.70
9776;DHT22;4927;52.472;13.108;2022-07-29T23:06:52;21.50;70.70
9776;DHT22;4927;52.472;13.108;2022-07-29T23:11:58;21.50;70.90
9776;DHT22;4927;52.472;13.108;2022-07-29T23:17:05;21.50;70.90
9776;DHT22;4927;52.472;13.108;2022-07-29T23:22:11;21.40;71.10
9776;DHT22;4927;52.472;13.108;2022-07-29T23:27:15;21.30;71.40
9776;DHT22;4927;52.472;13.108;2022-07-29T23:32:22;21.20;71.90
9776;DHT22;4927;52.472;13.108;2022-07-29T23:37:28;21.20;71.90
9776;DHT22;4927;52.472;13.108;2022-07-29T23:42:35;21.10;72.10
9776;DHT22;4927;52.472;13.108;2022-07-29T23:47:41;21.10;72.40
9776;DHT22;4927;52.472;13.108;2022-07-29T23:52:47;21.00;72.60
9776;DHT22;4927;52.472;13.108;2022-07-29T23:57:53;21.00;72.60
